createdAt,value
2017-10-20T00:01:07.518Z,61.50
2017-10-20T00:03:35.004Z,61.13
2017-10-20T00:06:02.456Z,56.90
2017-10-20T00:08:29.902Z,61.63
2017-10-20T00:10:57.373Z,58.93
2017-10-20T00:13:24.825Z,60.47
2017-10-20T00:15:52.298Z,64.10
2017-10-20T00:18:19.761Z,60.50
2017-10-20T00:20:47.205Z,58.77
2017-10-20T00:23:14.682Z,59.33
2017-10-20T00:25:42.130Z,57.57
2017-10-20T00:28:09.592Z,60.00
2017-10-20T00:30:37.067Z,57.53
2017-10-20T00:33:04.515Z,60.53
2017-10-20T00:35:32.081Z,57.17
2017-10-20T00:38:00.578Z,56.87
2017-10-20T00:40:28.951Z,57.77
2017-10-20T00:42:56.651Z,57.63
2017-10-20T00:45:24.326Z,54.67
2017-10-20T00:47:51.987Z,57.30
2017-10-20T00:50:19.550Z,53.00
2017-10-20T00:52:47.159Z,57.63
2017-10-20T00:55:15.491Z,56.00
2017-10-20T00:57:43.092Z,56.60
2017-10-20T01:00:11.588Z,57.47
2017-10-20T01:02:39.967Z,54.70
2017-10-20T01:05:08.843Z,55.77
2017-10-20T01:07:37.317Z,51.00
2017-10-20T01:10:04.761Z,49.40
2017-10-20T01:12:32.234Z,53.87
2017-10-20T01:14:59.718Z,52.27
2017-10-20T01:17:27.938Z,55.80
2017-10-20T01:19:55.385Z,51.73
2017-10-20T01:22:22.848Z,50.30
2017-10-20T01:24:50.296Z,50.47
2017-10-20T01:27:17.760Z,50.83
2017-10-20T01:29:45.219Z,51.30
2017-10-20T01:32:12.680Z,49.97
2017-10-20T01:34:40.140Z,50.33
2017-10-20T01:37:07.608Z,51.23
2017-10-20T01:39:35.079Z,49.27
2017-10-20T01:42:02.530Z,50.53
2017-10-20T01:44:30.012Z,51.87
2017-10-20T01:46:58.226Z,48.70
2017-10-20T01:49:25.663Z,49.50
2017-10-20T01:51:53.143Z,50.73
2017-10-20T01:54:20.605Z,47.87
2017-10-20T01:56:48.053Z,48.93
2017-10-20T01:59:15.515Z,49.27
2017-10-20T02:01:42.977Z,48.20
2017-10-20T02:04:10.432Z,44.40
2017-10-20T02:06:37.891Z,51.33
2017-10-20T02:09:05.548Z,43.13
2017-10-20T02:11:32.996Z,47.17
2017-10-20T02:14:01.216Z,46.00
2017-10-20T02:16:28.694Z,45.80
2017-10-20T02:18:56.165Z,43.13
2017-10-20T02:21:24.376Z,45.37
2017-10-20T02:23:51.825Z,48.47
2017-10-20T02:26:19.297Z,45.33
2017-10-20T02:28:46.762Z,45.63
2017-10-20T02:31:14.245Z,45.50
2017-10-20T02:33:41.680Z,45.03
2017-10-20T02:36:09.117Z,44.27
2017-10-20T02:38:36.589Z,42.80
2017-10-20T02:41:04.343Z,43.90
2017-10-20T02:43:31.784Z,41.50
2017-10-20T02:45:59.267Z,41.20
2017-10-20T02:48:26.712Z,41.67
2017-10-20T02:50:54.158Z,40.33
2017-10-20T02:53:21.621Z,42.77
2017-10-20T02:55:49.073Z,41.87
2017-10-20T02:58:16.543Z,40.53
2017-10-20T03:00:43.987Z,41.70
2017-10-20T03:03:11.449Z,42.10
2017-10-20T03:05:38.917Z,39.40
2017-10-20T03:08:06.401Z,42.33
2017-10-20T03:10:33.836Z,41.90
2017-10-20T03:13:01.290Z,40.97
2017-10-20T03:15:28.760Z,42.17
2017-10-20T03:17:56.210Z,41.47
2017-10-20T03:20:23.672Z,36.73
2017-10-20T03:22:51.116Z,40.27
2017-10-20T03:25:18.594Z,37.60
2017-10-20T03:27:46.340Z,38.13
2017-10-20T03:30:13.790Z,39.90
2017-10-20T03:32:41.261Z,39.50
2017-10-20T03:35:08.714Z,41.00
2017-10-20T03:37:36.152Z,38.93
2017-10-20T03:40:03.613Z,40.00
2017-10-20T03:42:31.057Z,38.03
2017-10-20T03:44:59.300Z,36.93
2017-10-20T03:47:26.744Z,39.60
2017-10-20T03:49:54.192Z,38.87
2017-10-20T03:52:21.687Z,36.57
2017-10-20T03:54:49.160Z,35.13
2017-10-20T03:57:17.376Z,38.67
2017-10-20T03:59:44.833Z,35.03
2017-10-20T04:02:12.289Z,36.10
2017-10-20T04:04:39.748Z,36.33
2017-10-20T04:07:07.216Z,43.70
2017-10-20T04:09:34.660Z,38.10
2017-10-20T04:12:02.116Z,41.23
2017-10-20T04:14:29.678Z,39.90
2017-10-20T04:16:57.144Z,35.90
2017-10-20T04:19:24.694Z,44.43
2017-10-20T04:21:52.148Z,38.33
2017-10-20T04:24:19.610Z,35.80
2017-10-20T04:26:47.820Z,35.10
2017-10-20T04:29:15.284Z,36.13
2017-10-20T04:31:42.745Z,36.67
2017-10-20T04:34:10.200Z,35.50
2017-10-20T04:36:37.644Z,35.40
2017-10-20T04:39:05.386Z,36.40
2017-10-20T04:41:32.828Z,34.37
2017-10-20T04:44:00.317Z,39.03
2017-10-20T04:46:27.758Z,38.90
2017-10-20T04:48:55.217Z,35.50
2017-10-20T04:51:22.677Z,36.40
2017-10-20T04:53:50.120Z,32.83
2017-10-20T04:56:17.572Z,34.97
2017-10-20T04:58:45.044Z,33.20
2017-10-20T05:01:12.492Z,33.07
2017-10-20T05:03:39.943Z,35.10
2017-10-20T05:06:07.581Z,35.57
2017-10-20T05:08:35.793Z,33.70
2017-10-20T05:11:03.345Z,35.97
2017-10-20T05:13:30.808Z,34.27
2017-10-20T05:15:58.285Z,32.77
2017-10-20T05:18:25.737Z,33.03
2017-10-20T05:20:53.196Z,34.80
2017-10-20T05:23:20.732Z,34.90
2017-10-20T05:25:48.174Z,34.73
2017-10-20T05:28:15.626Z,32.60
2017-10-20T05:30:43.853Z,32.10
2017-10-20T05:33:11.383Z,32.67
2017-10-20T05:35:38.841Z,35.67
2017-10-20T05:38:06.279Z,33.97
2017-10-20T05:40:33.740Z,34.13
2017-10-20T05:43:01.189Z,32.30
2017-10-20T05:45:29.417Z,34.17
2017-10-20T05:47:56.856Z,32.30
2017-10-20T05:50:24.324Z,33.33
2017-10-20T05:52:51.863Z,32.10
2017-10-20T05:55:19.322Z,34.97
2017-10-20T05:57:46.881Z,33.73
2017-10-20T06:00:14.317Z,31.07
2017-10-20T06:02:41.779Z,31.20
2017-10-20T06:05:09.253Z,29.77
2017-10-20T06:07:37.510Z,31.63
2017-10-20T06:10:04.954Z,32.20
2017-10-20T06:12:33.180Z,31.67
2017-10-20T06:15:00.644Z,30.00
2017-10-20T06:17:40.876Z,30.53
2017-10-20T06:20:08.336Z,30.33
2017-10-20T06:22:35.780Z,33.07
2017-10-20T06:25:03.249Z,31.37
2017-10-20T06:27:30.717Z,32.33
2017-10-20T06:29:58.174Z,30.03
2017-10-20T06:32:25.728Z,29.93
2017-10-20T06:34:53.287Z,30.60
2017-10-20T06:37:20.756Z,30.70
2017-10-20T06:39:48.204Z,30.13
2017-10-20T06:42:15.652Z,30.27
2017-10-20T06:44:43.100Z,31.07
2017-10-20T06:47:10.549Z,33.03
2017-10-20T06:49:38.812Z,30.63
2017-10-20T06:52:07.077Z,29.33
2017-10-20T06:54:34.530Z,28.00
2017-10-20T06:57:02.030Z,28.47
2017-10-20T06:59:29.480Z,30.40
2017-10-20T07:01:56.948Z,27.10
2017-10-20T07:04:24.430Z,30.77
2017-10-20T07:06:51.877Z,31.63
2017-10-20T07:09:19.321Z,31.10
2017-10-20T07:11:46.796Z,32.87
2017-10-20T07:14:14.265Z,28.43
2017-10-20T07:16:41.755Z,31.17
2017-10-20T07:32:30.602Z,28.83
2017-10-20T07:34:58.114Z,29.50
2017-10-20T07:37:25.779Z,29.60
2017-10-20T07:39:53.567Z,28.67
2017-10-20T07:42:20.998Z,28.33
2017-10-20T07:44:48.447Z,26.73
2017-10-20T07:47:16.124Z,29.77
2017-10-20T07:49:43.568Z,28.40
2017-10-20T07:52:11.053Z,24.80
2017-10-20T07:54:39.413Z,28.20
2017-10-20T07:57:06.875Z,27.97
2017-10-20T07:59:34.389Z,29.40
2017-10-20T08:02:02.611Z,28.40
2017-10-20T08:04:30.048Z,28.47
2017-10-20T08:06:57.513Z,31.27
2017-10-20T08:09:24.952Z,30.50
2017-10-20T08:11:53.197Z,27.33
2017-10-20T08:14:20.650Z,27.97
2017-10-20T08:16:48.093Z,26.17
2017-10-20T08:19:15.570Z,24.17
2017-10-20T08:21:43.045Z,26.50
2017-10-20T08:24:11.265Z,25.07
2017-10-20T08:26:38.724Z,25.17
2017-10-20T08:29:06.196Z,24.73
2017-10-20T08:31:33.652Z,28.40
2017-10-20T08:34:01.113Z,26.30
2017-10-20T08:36:28.589Z,27.63
2017-10-20T08:38:56.320Z,25.70
2017-10-20T08:41:23.777Z,26.30
2017-10-20T08:43:51.244Z,26.50
2017-10-20T08:46:18.700Z,25.50
2017-10-20T08:48:46.185Z,24.90
2017-10-20T08:51:13.636Z,26.27
2017-10-20T08:53:41.128Z,24.13
2017-10-20T08:56:09.688Z,24.37
2017-10-20T08:58:37.405Z,25.50
2017-10-20T09:01:04.884Z,25.07
2017-10-20T09:03:32.332Z,24.17
2017-10-20T09:05:59.822Z,21.57
2017-10-20T09:08:27.284Z,22.63
2017-10-20T09:10:54.728Z,24.77
2017-10-20T09:13:23.030Z,22.17
2017-10-20T09:15:50.487Z,46.50
2017-10-20T09:18:18.149Z,22.97
2017-10-20T09:20:45.838Z,24.53
2017-10-20T09:23:13.280Z,22.13
2017-10-20T09:25:41.577Z,22.93
2017-10-20T09:28:09.048Z,25.67
2017-10-20T09:30:36.506Z,41.07
2017-10-20T09:33:03.984Z,22.90
2017-10-20T09:35:31.522Z,24.97
2017-10-20T09:37:58.964Z,22.80
2017-10-20T09:40:26.445Z,21.70
2017-10-20T09:42:53.888Z,20.20
2017-10-20T09:45:21.369Z,19.70
2017-10-20T09:47:48.836Z,21.10
2017-10-20T09:50:16.577Z,23.00
2017-10-20T09:52:44.044Z,24.87
2017-10-20T09:55:11.506Z,25.07
2017-10-20T09:57:38.973Z,22.33
2017-10-20T10:00:06.432Z,22.53
2017-10-20T10:02:33.890Z,21.27
2017-10-20T10:05:01.634Z,21.70
2017-10-20T10:07:29.094Z,21.30
2017-10-20T10:09:56.554Z,21.93
2017-10-20T10:12:24.057Z,20.40
2017-10-20T10:14:51.902Z,19.90
2017-10-20T10:17:19.345Z,19.63
2017-10-20T10:19:46.821Z,23.10
2017-10-20T10:22:14.264Z,20.90
2017-10-20T10:24:41.716Z,21.27
2017-10-20T10:27:09.176Z,18.73
2017-10-20T10:29:36.678Z,21.90
2017-10-20T10:32:05.304Z,18.90
2017-10-20T10:34:32.744Z,19.07
2017-10-20T10:37:00.197Z,21.30
2017-10-20T10:39:27.988Z,20.10
2017-10-20T10:41:55.445Z,21.50
2017-10-20T10:44:22.920Z,20.23
2017-10-20T10:46:50.408Z,21.50
2017-10-20T10:49:17.860Z,18.90
2017-10-20T10:51:45.302Z,20.77
2017-10-20T10:54:12.931Z,22.97
2017-10-20T10:56:40.506Z,20.57
2017-10-20T10:59:07.974Z,19.90
2017-10-20T11:01:35.416Z,21.80
2017-10-20T11:04:02.887Z,21.70
2017-10-20T11:06:42.152Z,20.43
2017-10-20T11:09:18.768Z,19.77
2017-10-20T11:11:58.073Z,17.90
2017-10-20T11:14:26.326Z,20.23
2017-10-20T11:16:53.793Z,19.40
2017-10-20T11:19:21.337Z,21.20
2017-10-20T11:21:48.829Z,21.93
2017-10-20T11:24:17.037Z,20.13
2017-10-20T11:26:44.504Z,21.10
2017-10-20T11:29:11.948Z,18.53
2017-10-20T11:31:39.402Z,19.40
2017-10-20T11:34:06.878Z,19.10
2017-10-20T11:36:34.527Z,21.00
2017-10-20T11:39:01.958Z,20.63
2017-10-20T11:41:30.193Z,19.20
2017-10-20T11:43:57.665Z,16.47
2017-10-20T11:46:25.116Z,17.77
2017-10-20T11:48:52.846Z,17.53
2017-10-20T11:51:20.291Z,17.40
2017-10-20T11:53:47.746Z,17.83
2017-10-20T11:56:15.188Z,18.03
2017-10-20T11:58:42.732Z,18.27
2017-10-20T12:01:10.957Z,19.00
2017-10-20T12:03:38.397Z,17.90
2017-10-20T12:06:05.907Z,19.27
2017-10-20T12:08:33.368Z,17.53
2017-10-20T12:11:00.845Z,18.40
2017-10-20T12:13:29.218Z,19.37
2017-10-20T12:15:57.534Z,19.60
2017-10-20T12:18:24.964Z,19.60
2017-10-20T12:20:53.208Z,18.97
2017-10-20T12:23:20.658Z,19.83
2017-10-20T12:25:48.184Z,19.40
2017-10-20T12:28:15.632Z,19.47
2017-10-20T12:30:43.101Z,18.57
2017-10-20T12:33:11.418Z,18.53
2017-10-20T12:35:39.148Z,23.90
2017-10-20T12:38:06.614Z,20.17
2017-10-20T12:40:34.075Z,20.03
2017-10-20T12:43:01.548Z,20.97
2017-10-20T12:45:29.000Z,19.27
2017-10-20T12:47:56.486Z,20.20
2017-10-20T12:50:23.954Z,16.40
2017-10-20T12:52:52.167Z,19.60
2017-10-20T12:55:19.660Z,18.60
2017-10-20T12:57:47.123Z,16.40
2017-10-20T13:00:14.572Z,20.43
2017-10-20T13:02:42.038Z,18.50
2017-10-20T13:05:09.513Z,21.13
2017-10-20T13:07:37.721Z,19.10
2017-10-20T13:10:05.258Z,18.13
2017-10-20T13:12:33.460Z,18.77
2017-10-20T13:15:00.930Z,19.77
2017-10-20T13:17:28.396Z,20.03
2017-10-20T13:19:56.754Z,18.93
2017-10-20T13:22:25.198Z,20.57
2017-10-20T13:24:53.433Z,17.67
2017-10-20T13:27:20.885Z,20.80
2017-10-20T13:29:48.361Z,17.33
2017-10-20T13:32:15.843Z,19.80
2017-10-20T13:34:43.649Z,22.17
2017-10-20T13:37:11.477Z,18.13
2017-10-20T13:39:39.014Z,20.10
2017-10-20T13:42:06.502Z,17.57
2017-10-20T13:44:35.389Z,18.23
2017-10-20T13:47:03.644Z,20.53
2017-10-20T13:49:31.093Z,20.87
2017-10-20T13:51:58.544Z,19.47
2017-10-20T13:54:26.022Z,18.20
2017-10-20T13:56:53.460Z,19.73
2017-10-20T13:59:20.991Z,20.83
2017-10-20T14:01:48.430Z,20.13
2017-10-20T14:04:15.909Z,19.70
2017-10-20T14:06:43.365Z,20.70
2017-10-20T14:09:10.830Z,20.47
2017-10-20T14:11:38.289Z,20.57
2017-10-20T14:14:05.842Z,21.70
2017-10-20T14:16:33.308Z,22.63
2017-10-20T14:19:00.749Z,23.97
2017-10-20T14:21:28.220Z,19.93
2017-10-20T14:23:55.677Z,18.33
2017-10-20T14:26:23.170Z,21.50
2017-10-20T14:28:50.616Z,19.93
2017-10-20T14:31:18.147Z,21.07
2017-10-20T14:33:45.609Z,23.57
2017-10-20T14:36:13.092Z,20.90
2017-10-20T14:38:40.533Z,19.50
2017-10-20T14:41:25.972Z,21.37
2017-10-20T14:43:54.184Z,19.57
2017-10-20T14:46:21.632Z,21.40
2017-10-20T14:48:49.108Z,18.70
2017-10-20T14:51:16.561Z,20.20
2017-10-20T14:53:44.014Z,22.77
2017-10-20T14:56:11.492Z,22.43
2017-10-20T14:58:38.950Z,20.60
2017-10-20T15:01:06.396Z,23.37
2017-10-20T15:03:34.620Z,25.43
2017-10-20T15:06:02.853Z,23.87
2017-10-20T15:08:30.306Z,24.03
2017-10-20T15:10:57.778Z,22.13
2017-10-20T15:13:25.251Z,22.63
2017-10-20T15:15:52.710Z,22.00
2017-10-20T15:18:20.199Z,16.73
2017-10-20T15:20:48.399Z,19.40
2017-10-20T15:23:15.857Z,20.17
2017-10-20T15:25:43.329Z,20.77
2017-10-20T15:28:10.785Z,19.13
2017-10-20T15:30:38.225Z,20.60
2017-10-20T15:33:05.697Z,19.87
2017-10-20T15:35:33.147Z,19.70
2017-10-20T15:38:00.594Z,20.37
2017-10-20T15:40:28.080Z,18.60
2017-10-20T15:42:55.529Z,20.90
2017-10-20T15:45:23.750Z,18.10
2017-10-20T15:47:51.980Z,21.80
2017-10-20T15:50:19.521Z,19.13
2017-10-20T15:52:46.958Z,19.13
2017-10-20T15:55:14.540Z,21.43
2017-10-20T15:57:41.982Z,19.90
2017-10-20T16:00:09.420Z,20.90
2017-10-20T16:02:37.663Z,22.47
2017-10-20T16:05:05.118Z,19.60
2017-10-20T16:07:32.646Z,22.40
2017-10-20T16:10:00.110Z,21.03
2017-10-20T16:12:27.868Z,19.97
2017-10-20T16:14:55.428Z,22.40
2017-10-20T16:17:22.871Z,21.77
2017-10-20T16:19:50.317Z,20.97
2017-10-20T16:22:18.825Z,20.27
2017-10-20T16:24:46.278Z,22.17
2017-10-20T16:27:13.721Z,21.20
2017-10-20T16:29:41.184Z,22.30
2017-10-20T16:32:08.641Z,23.70
2017-10-20T16:34:36.090Z,20.07
2017-10-20T16:37:04.332Z,20.00
2017-10-20T16:39:31.786Z,20.33
2017-10-20T16:41:59.238Z,24.87
2017-10-20T16:44:26.701Z,23.27
2017-10-20T16:46:54.148Z,21.97
2017-10-20T16:49:21.604Z,23.50
2017-10-20T16:51:49.814Z,24.83
2017-10-20T16:54:18.056Z,24.17
2017-10-20T16:56:45.592Z,23.27
2017-10-20T16:59:13.050Z,22.20
2017-10-20T17:01:40.493Z,20.20
2017-10-20T17:04:07.970Z,22.20
2017-10-20T17:06:35.439Z,22.00
2017-10-20T17:09:02.909Z,22.87
2017-10-20T17:11:30.384Z,32.73
2017-10-20T17:13:57.895Z,24.53
2017-10-20T17:16:25.323Z,22.97
2017-10-20T17:18:53.560Z,22.23
2017-10-20T17:21:21.008Z,19.90
2017-10-20T17:23:48.467Z,21.90
2017-10-20T17:26:15.924Z,20.00
2017-10-20T17:28:43.369Z,22.17
2017-10-20T17:31:10.849Z,20.13
2017-10-20T17:33:38.293Z,21.50
2017-10-20T17:36:05.735Z,20.40
2017-10-20T17:38:33.203Z,18.53
2017-10-20T17:41:00.675Z,18.67
2017-10-20T17:43:28.134Z,18.97
2017-10-20T17:45:55.599Z,18.87
2017-10-20T17:48:23.044Z,19.37
2017-10-20T17:50:50.782Z,20.50
2017-10-20T17:53:18.225Z,21.57
2017-10-20T17:55:45.696Z,21.53
2017-10-20T17:58:13.152Z,21.50
2017-10-20T18:00:40.609Z,22.00
2017-10-20T18:03:08.076Z,19.77
2017-10-20T18:05:35.525Z,24.10
2017-10-20T18:08:03.004Z,21.60
2017-10-20T18:10:30.466Z,21.73
2017-10-20T18:12:57.911Z,25.70
2017-10-20T18:15:25.377Z,21.50
2017-10-20T18:17:52.816Z,22.97
2017-10-20T18:20:20.289Z,22.23
2017-10-20T18:22:47.833Z,21.80
2017-10-20T18:25:15.288Z,21.80
2017-10-20T18:27:42.772Z,24.77
2017-10-20T18:30:10.246Z,24.10
2017-10-20T18:32:37.691Z,24.37
2017-10-20T18:35:05.189Z,24.70
2017-10-20T18:37:32.658Z,25.53
2017-10-20T18:40:00.120Z,26.73
2017-10-20T18:42:27.672Z,24.10
2017-10-20T18:44:55.910Z,23.73
2017-10-20T18:47:23.348Z,22.40
2017-10-20T18:49:50.814Z,22.00
2017-10-20T18:52:19.032Z,21.63
2017-10-20T18:54:47.312Z,22.53
2017-10-20T18:57:15.548Z,22.33
2017-10-20T18:59:43.042Z,23.13
2017-10-20T19:02:11.374Z,20.60
2017-10-20T19:04:38.805Z,24.30
2017-10-20T19:07:06.269Z,21.50
2017-10-20T19:09:33.712Z,22.53
2017-10-20T19:12:01.190Z,24.33
2017-10-20T19:14:29.662Z,25.80
2017-10-20T19:16:57.088Z,24.17
2017-10-20T19:19:25.324Z,22.60
2017-10-20T19:21:52.804Z,24.40
2017-10-20T19:24:20.266Z,20.60
2017-10-20T19:26:47.749Z,21.70
2017-10-20T19:29:15.957Z,23.40
2017-10-20T19:31:43.969Z,19.57
2017-10-20T19:34:11.436Z,18.47
2017-10-20T19:36:39.677Z,21.40
2017-10-20T19:39:07.162Z,20.43
2017-10-20T19:41:34.612Z,21.10
2017-10-20T19:44:02.063Z,22.17
2017-10-20T19:46:29.524Z,18.03
2017-10-20T19:48:56.985Z,22.63
2017-10-20T19:51:24.505Z,24.33
2017-10-20T19:53:51.996Z,20.70
2017-10-20T19:56:19.467Z,18.67
2017-10-20T19:58:46.962Z,21.67
2017-10-20T20:01:14.404Z,21.90
2017-10-20T20:03:42.645Z,22.47
2017-10-20T20:06:10.134Z,20.60
2017-10-20T20:08:37.620Z,19.23
2017-10-20T20:11:05.075Z,17.80
2017-10-20T20:13:32.526Z,18.83
2017-10-20T20:15:59.996Z,26.20
2017-10-20T20:18:27.440Z,19.97
2017-10-20T20:20:54.924Z,18.30
2017-10-20T20:23:22.364Z,18.60
2017-10-20T20:25:49.832Z,21.93
2017-10-20T20:28:17.314Z,20.60
2017-10-20T20:30:44.777Z,19.50
2017-10-20T20:33:30.952Z,18.73
2017-10-20T20:35:58.395Z,18.90
2017-10-20T20:38:25.840Z,20.63
2017-10-20T20:40:53.304Z,19.50
2017-10-20T20:43:20.749Z,22.27
2017-10-20T20:45:48.188Z,19.43
2017-10-20T20:48:16.419Z,19.47
2017-10-20T20:50:43.882Z,18.57
2017-10-20T20:53:11.354Z,15.90
2017-10-20T20:55:38.800Z,16.50
2017-10-20T20:58:06.290Z,19.40
2017-10-20T21:00:33.757Z,16.43
2017-10-20T21:03:01.964Z,16.63
2017-10-20T21:05:29.462Z,14.60
2017-10-20T21:07:56.934Z,15.87
2017-10-20T21:10:24.390Z,16.17
2017-10-20T21:12:51.856Z,15.13
2017-10-20T21:15:20.088Z,15.37
2017-10-20T21:17:47.542Z,15.50
2017-10-20T21:20:15.022Z,16.30
2017-10-20T21:22:42.464Z,14.60
2017-10-20T21:25:09.909Z,15.87
2017-10-20T21:27:37.376Z,16.50
2017-10-20T21:30:04.821Z,15.63
2017-10-20T21:32:32.308Z,16.33
2017-10-20T21:35:00.734Z,16.57
2017-10-20T21:37:28.944Z,15.17
2017-10-20T21:39:56.412Z,14.83
2017-10-20T21:42:24.156Z,14.73
2017-10-20T21:44:51.643Z,15.90
2017-10-20T21:47:19.081Z,16.87
2017-10-20T21:49:46.544Z,17.10
2017-10-20T21:52:14.008Z,15.63
2017-10-20T21:54:41.549Z,15.00
2017-10-20T21:57:09.012Z,14.00
2017-10-20T21:59:36.460Z,17.90
2017-10-20T22:02:03.932Z,18.70
2017-10-20T22:04:31.379Z,18.13
2017-10-20T22:06:58.820Z,15.00
2017-10-20T22:09:26.293Z,17.10
2017-10-20T22:11:53.812Z,17.17
2017-10-20T22:14:22.048Z,17.40
2017-10-20T22:16:49.524Z,14.23
2017-10-20T22:19:17.002Z,15.10
2017-10-20T22:21:45.213Z,15.00
2017-10-20T22:24:12.657Z,16.50
2017-10-20T22:26:40.138Z,14.80
2017-10-20T22:29:07.586Z,16.73
2017-10-20T22:31:35.038Z,15.20
2017-10-20T22:34:02.504Z,16.53
2017-10-20T22:36:29.968Z,16.20
2017-10-20T22:38:57.412Z,13.90
2017-10-20T22:41:24.867Z,15.20
2017-10-20T22:43:52.333Z,15.73
2017-10-20T22:46:19.792Z,15.27
2017-10-20T22:48:47.274Z,14.33
2017-10-20T22:51:15.327Z,14.83
2017-10-20T22:53:42.788Z,13.73
2017-10-20T22:56:10.233Z,15.03
2017-10-20T22:58:37.692Z,16.40
2017-10-20T23:01:05.163Z,14.43
2017-10-20T23:03:32.650Z,13.80
2017-10-20T23:06:00.092Z,14.53
2017-10-20T23:08:27.541Z,14.83
2017-10-20T23:10:55.000Z,14.50
2017-10-20T23:13:22.454Z,14.10
2017-10-20T23:15:49.918Z,15.07
2017-10-20T23:18:17.356Z,15.33
2017-10-20T23:20:44.812Z,13.77
2017-10-20T23:23:12.274Z,14.40
2017-10-20T23:25:39.749Z,14.97
2017-10-20T23:28:07.192Z,15.73
2017-10-20T23:30:34.652Z,14.27
2017-10-20T23:33:02.114Z,15.23
2017-10-20T23:35:29.557Z,14.17
2017-10-20T23:37:57.020Z,14.23
2017-10-20T23:40:24.480Z,13.90
2017-10-20T23:42:51.941Z,12.87
2017-10-20T23:45:19.409Z,13.20
2017-10-20T23:47:46.873Z,13.67
2017-10-20T23:50:14.323Z,13.70
2017-10-20T23:52:42.540Z,14.97
2017-10-20T23:55:10.767Z,16.10
2017-10-20T23:57:38.213Z,14.23
